sensor_id;sensor_type;location;lat;lon;timestamp;P1;durP1;ratioP1;P2;durP2;ratioP2
3591;SDS011;1810;48.720;9.094;2023-05-07T00:01:39;668.38;;;630.40;;
3591;SDS011;1810;48.720;9.094;2023-05-07T00:04:09;671.83;;;633.33;;
3591;SDS011;1810;48.720;9.094;2023-05-07T00:06:38;648.22;;;612.28;;
3591;SDS011;1810;48.720;9.094;2023-05-07T00:09:07;666.15;;;628.53;;
3591;SDS011;1810;48.720;9.094;2023-05-07T00:11:35;642.20;;;606.15;;
3591;SDS011;1810;48.720;9.094;2023-05-07T00:14:04;642.50;;;606.33;;
3591;SDS011;1810;48.720;9.094;2023-05-07T00:16:32;655.08;;;618.33;;
3591;SDS011;1810;48.720;9.094;2023-05-07T00:19:00;659.13;;;622.08;;
3591;SDS011;1810;48.720;9.094;2023-05-07T00:21:30;644.20;;;608.33;;
3591;SDS011;1810;48.720;9.094;2023-05-07T00:23:59;674.47;;;635.60;;
3591;SDS011;1810;48.720;9.094;2023-05-07T00:26:27;647.75;;;611.47;;
3591;SDS011;1810;48.720;9.094;2023-05-07T00:28:55;650.67;;;614.15;;
3591;SDS011;1810;48.720;9.094;2023-05-07T00:31:24;635.63;;;600.50;;
3591;SDS011;1810;48.720;9.094;2023-05-07T00:33:52;646.40;;;610.42;;
3591;SDS011;1810;48.720;9.094;2023-05-07T00:36:21;633.28;;;598.30;;
3591;SDS011;1810;48.720;9.094;2023-05-07T00:38:51;687.08;;;646.88;;
3591;SDS011;1810;48.720;9.094;2023-05-07T00:41:20;643.33;;;607.45;;
3591;SDS011;1810;48.720;9.094;2023-05-07T00:43:49;629.15;;;594.35;;
3591;SDS011;1810;48.720;9.094;2023-05-07T00:46:18;648.05;;;611.72;;
3591;SDS011;1810;48.720;9.094;2023-05-07T00:48:48;648.88;;;612.78;;
3591;SDS011;1810;48.720;9.094;2023-05-07T00:51:17;689.88;;;649.60;;
3591;SDS011;1810;48.720;9.094;2023-05-07T00:53:46;655.10;;;618.20;;
3591;SDS011;1810;48.720;9.094;2023-05-07T00:56:16;682.78;;;643.35;;
3591;SDS011;1810;48.720;9.094;2023-05-07T00:58:44;632.10;;;596.90;;
3591;SDS011;1810;48.720;9.094;2023-05-07T01:01:13;673.08;;;633.67;;
3591;SDS011;1810;48.720;9.094;2023-05-07T01:03:43;645.83;;;609.83;;
3591;SDS011;1810;48.720;9.094;2023-05-07T01:06:11;636.17;;;600.97;;
3591;SDS011;1810;48.720;9.094;2023-05-07T01:08:43;649.63;;;613.15;;
3591;SDS011;1810;48.720;9.094;2023-05-07T01:11:13;637.00;;;601.55;;
3591;SDS011;1810;48.720;9.094;2023-05-07T01:13:42;650.17;;;613.67;;
3591;SDS011;1810;48.720;9.094;2023-05-07T01:16:11;658.42;;;620.60;;
3591;SDS011;1810;48.720;9.094;2023-05-07T01:18:39;634.03;;;599.22;;
3591;SDS011;1810;48.720;9.094;2023-05-07T01:21:08;644.30;;;608.15;;
3591;SDS011;1810;48.720;9.094;2023-05-07T01:23:40;680.53;;;641.28;;
3591;SDS011;1810;48.720;9.094;2023-05-07T01:26:09;648.80;;;612.08;;
3591;SDS011;1810;48.720;9.094;2023-05-07T01:28:38;630.08;;;595.22;;
3591;SDS011;1810;48.720;9.094;2023-05-07T01:31:06;625.97;;;591.47;;
3591;SDS011;1810;48.720;9.094;2023-05-07T01:33:36;644.58;;;609.03;;
3591;SDS011;1810;48.720;9.094;2023-05-07T01:36:06;680.95;;;641.42;;
3591;SDS011;1810;48.720;9.094;2023-05-07T01:38:36;642.60;;;607.08;;
3591;SDS011;1810;48.720;9.094;2023-05-07T01:41:06;663.72;;;626.35;;
3591;SDS011;1810;48.720;9.094;2023-05-07T01:43:35;637.50;;;602.25;;
3591;SDS011;1810;48.720;9.094;2023-05-07T01:46:04;646.25;;;610.05;;
3591;SDS011;1810;48.720;9.094;2023-05-07T01:48:32;666.72;;;628.63;;
3591;SDS011;1810;48.720;9.094;2023-05-07T01:51:01;638.75;;;603.42;;
3591;SDS011;1810;48.720;9.094;2023-05-07T01:53:35;636.63;;;601.30;;
3591;SDS011;1810;48.720;9.094;2023-05-07T01:56:04;686.88;;;647.05;;
3591;SDS011;1810;48.720;9.094;2023-05-07T01:58:34;637.47;;;601.60;;
3591;SDS011;1810;48.720;9.094;2023-05-07T02:01:02;630.13;;;595.72;;
3591;SDS011;1810;48.720;9.094;2023-05-07T02:03:30;669.75;;;631.65;;
3591;SDS011;1810;48.720;9.094;2023-05-07T02:05:59;649.25;;;613.28;;
3591;SDS011;1810;48.720;9.094;2023-05-07T02:08:28;652.53;;;615.35;;
3591;SDS011;1810;48.720;9.094;2023-05-07T02:10:57;632.30;;;597.47;;
3591;SDS011;1810;48.720;9.094;2023-05-07T02:13:28;680.60;;;641.78;;
3591;SDS011;1810;48.720;9.094;2023-05-07T02:16:00;657.33;;;619.72;;
3591;SDS011;1810;48.720;9.094;2023-05-07T02:18:29;671.55;;;632.97;;
3591;SDS011;1810;48.720;9.094;2023-05-07T02:20:58;651.50;;;614.38;;
3591;SDS011;1810;48.720;9.094;2023-05-07T02:23:26;670.22;;;631.95;;
3591;SDS011;1810;48.720;9.094;2023-05-07T02:25:54;675.67;;;636.30;;
3591;SDS011;1810;48.720;9.094;2023-05-07T02:28:23;661.63;;;624.60;;
3591;SDS011;1810;48.720;9.094;2023-05-07T02:30:52;690.30;;;649.20;;
3591;SDS011;1810;48.720;9.094;2023-05-07T02:33:21;663.88;;;626.25;;
3591;SDS011;1810;48.720;9.094;2023-05-07T02:35:49;665.25;;;627.22;;
3591;SDS011;1810;48.720;9.094;2023-05-07T02:38:18;652.75;;;615.78;;
3591;SDS011;1810;48.720;9.094;2023-05-07T02:40:46;667.38;;;628.97;;
3591;SDS011;1810;48.720;9.094;2023-05-07T02:43:14;665.17;;;627.42;;
3591;SDS011;1810;48.720;9.094;2023-05-07T02:45:43;648.15;;;611.80;;
3591;SDS011;1810;48.720;9.094;2023-05-07T02:48:13;673.25;;;634.53;;
3591;SDS011;1810;48.720;9.094;2023-05-07T02:50:41;647.28;;;611.20;;
3591;SDS011;1810;48.720;9.094;2023-05-07T02:53:09;666.85;;;628.25;;
3591;SDS011;1810;48.720;9.094;2023-05-07T02:55:38;645.45;;;609.53;;
3591;SDS011;1810;48.720;9.094;2023-05-07T02:58:06;643.20;;;607.30;;
3591;SDS011;1810;48.720;9.094;2023-05-07T03:00:35;637.92;;;602.42;;
3591;SDS011;1810;48.720;9.094;2023-05-07T03:03:03;650.40;;;613.85;;
3591;SDS011;1810;48.720;9.094;2023-05-07T03:05:33;651.47;;;614.70;;
3591;SDS011;1810;48.720;9.094;2023-05-07T03:08:04;645.88;;;609.63;;
3591;SDS011;1810;48.720;9.094;2023-05-07T03:10:32;637.25;;;602.05;;
3591;SDS011;1810;48.720;9.094;2023-05-07T03:13:01;659.78;;;623.00;;
3591;SDS011;1810;48.720;9.094;2023-05-07T03:15:30;649.55;;;613.22;;
3591;SDS011;1810;48.720;9.094;2023-05-07T03:17:58;657.92;;;620.83;;
3591;SDS011;1810;48.720;9.094;2023-05-07T03:20:27;642.17;;;606.75;;
3591;SDS011;1810;48.720;9.094;2023-05-07T03:22:57;655.67;;;618.53;;
3591;SDS011;1810;48.720;9.094;2023-05-07T03:25:26;636.28;;;600.80;;
3591;SDS011;1810;48.720;9.094;2023-05-07T03:27:56;642.10;;;606.65;;
3591;SDS011;1810;48.720;9.094;2023-05-07T03:30:24;677.03;;;637.90;;
3591;SDS011;1810;48.720;9.094;2023-05-07T03:32:52;636.85;;;601.42;;
3591;SDS011;1810;48.720;9.094;2023-05-07T03:35:21;676.72;;;637.08;;
3591;SDS011;1810;48.720;9.094;2023-05-07T03:37:49;677.42;;;638.53;;
3591;SDS011;1810;48.720;9.094;2023-05-07T03:40:19;674.55;;;635.78;;
3591;SDS011;1810;48.720;9.094;2023-05-07T03:42:47;638.42;;;603.22;;
3591;SDS011;1810;48.720;9.094;2023-05-07T03:45:16;634.40;;;599.30;;
3591;SDS011;1810;48.720;9.094;2023-05-07T03:47:44;640.10;;;605.17;;
3591;SDS011;1810;48.720;9.094;2023-05-07T03:50:12;638.58;;;603.08;;
3591;SDS011;1810;48.720;9.094;2023-05-07T03:52:41;645.33;;;609.20;;
3591;SDS011;1810;48.720;9.094;2023-05-07T03:55:09;627.35;;;592.90;;
3591;SDS011;1810;48.720;9.094;2023-05-07T03:57:39;634.70;;;599.75;;
3591;SDS011;1810;48.720;9.094;2023-05-07T04:00:08;637.95;;;602.78;;
3591;SDS011;1810;48.720;9.094;2023-05-07T04:02:38;656.92;;;619.75;;
3591;SDS011;1810;48.720;9.094;2023-05-07T04:05:07;629.80;;;595.17;;
3591;SDS011;1810;48.720;9.094;2023-05-07T04:07:35;654.10;;;617.45;;
3591;SDS011;1810;48.720;9.094;2023-05-07T04:10:04;650.50;;;613.92;;
3591;SDS011;1810;48.720;9.094;2023-05-07T04:12:33;639.92;;;604.42;;
3591;SDS011;1810;48.720;9.094;2023-05-07T04:15:03;636.65;;;602.13;;
3591;SDS011;1810;48.720;9.094;2023-05-07T04:17:32;644.85;;;609.35;;
3591;SDS011;1810;48.720;9.094;2023-05-07T04:20:00;649.63;;;613.47;;
3591;SDS011;1810;48.720;9.094;2023-05-07T04:22:30;652.65;;;616.30;;
3591;SDS011;1810;48.720;9.094;2023-05-07T04:24:58;652.75;;;616.00;;
3591;SDS011;1810;48.720;9.094;2023-05-07T04:27:28;682.38;;;642.85;;
3591;SDS011;1810;48.720;9.094;2023-05-07T04:29:56;680.22;;;640.28;;
3591;SDS011;1810;48.720;9.094;2023-05-07T04:32:28;690.55;;;649.42;;
3591;SDS011;1810;48.720;9.094;2023-05-07T04:34:56;691.10;;;650.13;;
3591;SDS011;1810;48.720;9.094;2023-05-07T04:37:26;697.03;;;655.08;;
3591;SDS011;1810;48.720;9.094;2023-05-07T04:39:54;761.70;;;713.38;;
3591;SDS011;1810;48.720;9.094;2023-05-07T04:42:22;721.30;;;677.17;;
3591;SDS011;1810;48.720;9.094;2023-05-07T04:44:52;684.75;;;644.60;;
3591;SDS011;1810;48.720;9.094;2023-05-07T04:47:20;694.78;;;653.58;;
3591;SDS011;1810;48.720;9.094;2023-05-07T04:49:50;692.90;;;651.25;;
3591;SDS011;1810;48.720;9.094;2023-05-07T04:52:19;701.92;;;659.95;;
3591;SDS011;1810;48.720;9.094;2023-05-07T04:54:47;710.47;;;667.47;;
3591;SDS011;1810;48.720;9.094;2023-05-07T04:57:15;698.70;;;656.85;;
3591;SDS011;1810;48.720;9.094;2023-05-07T04:59:44;703.58;;;661.25;;
3591;SDS011;1810;48.720;9.094;2023-05-07T05:02:12;736.47;;;691.03;;
3591;SDS011;1810;48.720;9.094;2023-05-07T05:04:41;726.78;;;681.55;;
3591;SDS011;1810;48.720;9.094;2023-05-07T05:07:10;704.28;;;662.22;;
3591;SDS011;1810;48.720;9.094;2023-05-07T05:09:39;688.53;;;647.95;;
3591;SDS011;1810;48.720;9.094;2023-05-07T05:12:07;697.95;;;655.85;;
3591;SDS011;1810;48.720;9.094;2023-05-07T05:14:36;699.42;;;657.33;;
3591;SDS011;1810;48.720;9.094;2023-05-07T05:17:04;695.47;;;653.67;;
3591;SDS011;1810;48.720;9.094;2023-05-07T05:19:33;713.08;;;670.33;;
3591;SDS011;1810;48.720;9.094;2023-05-07T05:22:01;697.55;;;655.72;;
3591;SDS011;1810;48.720;9.094;2023-05-07T05:24:31;757.55;;;709.35;;
3591;SDS011;1810;48.720;9.094;2023-05-07T05:27:00;756.42;;;707.75;;
3591;SDS011;1810;48.720;9.094;2023-05-07T05:29:29;762.65;;;713.83;;
3591;SDS011;1810;48.720;9.094;2023-05-07T05:31:57;684.60;;;643.92;;
3591;SDS011;1810;48.720;9.094;2023-05-07T05:38:13;647.33;;;610.33;;
3591;SDS011;1810;48.720;9.094;2023-05-07T05:40:45;626.08;;;591.13;;
3591;SDS011;1810;48.720;9.094;2023-05-07T05:43:14;614.70;;;580.97;;
3591;SDS011;1810;48.720;9.094;2023-05-07T05:45:43;593.83;;;561.28;;
3591;SDS011;1810;48.720;9.094;2023-05-07T05:48:11;596.13;;;563.92;;
3591;SDS011;1810;48.720;9.094;2023-05-07T05:50:41;595.78;;;563.30;;
3591;SDS011;1810;48.720;9.094;2023-05-07T05:53:09;576.50;;;546.15;;
3591;SDS011;1810;48.720;9.094;2023-05-07T05:55:38;598.40;;;566.42;;
3591;SDS011;1810;48.720;9.094;2023-05-07T05:58:08;589.95;;;558.33;;
3591;SDS011;1810;48.720;9.094;2023-05-07T06:00:37;592.88;;;561.33;;
3591;SDS011;1810;48.720;9.094;2023-05-07T06:03:10;593.22;;;561.45;;
3591;SDS011;1810;48.720;9.094;2023-05-07T06:08:08;596.22;;;564.22;;
3591;SDS011;1810;48.720;9.094;2023-05-07T06:10:38;614.03;;;580.28;;
3591;SDS011;1810;48.720;9.094;2023-05-07T06:13:07;596.45;;;564.55;;
3591;SDS011;1810;48.720;9.094;2023-05-07T06:15:37;601.53;;;568.80;;
3591;SDS011;1810;48.720;9.094;2023-05-07T06:18:05;617.72;;;583.58;;
3591;SDS011;1810;48.720;9.094;2023-05-07T06:20:34;634.35;;;598.65;;
3591;SDS011;1810;48.720;9.094;2023-05-07T06:23:02;623.40;;;588.30;;
3591;SDS011;1810;48.720;9.094;2023-05-07T06:25:31;643.22;;;607.00;;
3591;SDS011;1810;48.720;9.094;2023-05-07T06:27:59;665.03;;;626.35;;
3591;SDS011;1810;48.720;9.094;2023-05-07T06:33:20;690.67;;;648.72;;
3591;SDS011;1810;48.720;9.094;2023-05-07T06:35:48;720.35;;;675.55;;
3591;SDS011;1810;48.720;9.094;2023-05-07T06:38:17;744.83;;;697.08;;
3591;SDS011;1810;48.720;9.094;2023-05-07T06:40:47;789.53;;;738.25;;
3591;SDS011;1810;48.720;9.094;2023-05-07T06:43:16;815.10;;;761.33;;
3591;SDS011;1810;48.720;9.094;2023-05-07T06:45:46;777.60;;;727.10;;
3591;SDS011;1810;48.720;9.094;2023-05-07T06:48:15;807.10;;;753.50;;
3591;SDS011;1810;48.720;9.094;2023-05-07T06:50:43;808.80;;;755.90;;
3591;SDS011;1810;48.720;9.094;2023-05-07T06:53:11;821.55;;;767.17;;
3591;SDS011;1810;48.720;9.094;2023-05-07T06:55:40;826.03;;;771.92;;
3591;SDS011;1810;48.720;9.094;2023-05-07T06:58:08;787.10;;;735.65;;
3591;SDS011;1810;48.720;9.094;2023-05-07T07:00:37;783.90;;;732.90;;
3591;SDS011;1810;48.720;9.094;2023-05-07T07:03:08;797.85;;;746.17;;
3591;SDS011;1810;48.720;9.094;2023-05-07T07:05:37;796.35;;;744.75;;
3591;SDS011;1810;48.720;9.094;2023-05-07T07:08:05;810.28;;;757.40;;
3591;SDS011;1810;48.720;9.094;2023-05-07T07:10:33;784.40;;;734.03;;
3591;SDS011;1810;48.720;9.094;2023-05-07T07:13:02;781.05;;;730.88;;
3591;SDS011;1810;48.720;9.094;2023-05-07T07:15:30;751.47;;;703.75;;
3591;SDS011;1810;48.720;9.094;2023-05-07T07:17:59;771.28;;;721.92;;
3591;SDS011;1810;48.720;9.094;2023-05-07T07:20:29;821.92;;;767.00;;
3591;SDS011;1810;48.720;9.094;2023-05-07T07:22:58;771.60;;;722.13;;
3591;SDS011;1810;48.720;9.094;2023-05-07T07:25:26;795.17;;;743.72;;
3591;SDS011;1810;48.720;9.094;2023-05-07T07:27:55;810.63;;;757.33;;
3591;SDS011;1810;48.720;9.094;2023-05-07T07:47:53;815.15;;;761.90;;
3591;SDS011;1810;48.720;9.094;2023-05-07T07:50:22;757.10;;;708.58;;
3591;SDS011;1810;48.720;9.094;2023-05-07T07:53:08;785.42;;;734.17;;
3591;SDS011;1810;48.720;9.094;2023-05-07T07:55:38;784.63;;;733.80;;
3591;SDS011;1810;48.720;9.094;2023-05-07T07:58:06;809.10;;;755.60;;
3591;SDS011;1810;48.720;9.094;2023-05-07T08:00:35;772.85;;;722.88;;
3591;SDS011;1810;48.720;9.094;2023-05-07T08:03:05;769.63;;;720.05;;
3591;SDS011;1810;48.720;9.094;2023-05-07T08:05:34;757.60;;;709.22;;
3591;SDS011;1810;48.720;9.094;2023-05-07T08:08:02;761.40;;;712.85;;
3591;SDS011;1810;48.720;9.094;2023-05-07T08:10:32;756.60;;;708.30;;
3591;SDS011;1810;48.720;9.094;2023-05-07T08:13:04;752.60;;;705.00;;
3591;SDS011;1810;48.720;9.094;2023-05-07T08:15:33;760.25;;;711.47;;
3591;SDS011;1810;48.720;9.094;2023-05-07T08:18:02;771.75;;;722.05;;
3591;SDS011;1810;48.720;9.094;2023-05-07T08:20:33;760.35;;;711.55;;
3591;SDS011;1810;48.720;9.094;2023-05-07T08:23:05;746.20;;;698.42;;
3591;SDS011;1810;48.720;9.094;2023-05-07T08:25:34;760.47;;;711.35;;
3591;SDS011;1810;48.720;9.094;2023-05-07T08:28:03;738.42;;;691.78;;
3591;SDS011;1810;48.720;9.094;2023-05-07T08:30:35;756.85;;;708.63;;
3591;SDS011;1810;48.720;9.094;2023-05-07T08:33:05;814.42;;;761.20;;
3591;SDS011;1810;48.720;9.094;2023-05-07T08:35:34;782.40;;;732.25;;
3591;SDS011;1810;48.720;9.094;2023-05-07T08:38:02;769.42;;;719.90;;
3591;SDS011;1810;48.720;9.094;2023-05-07T08:40:32;789.42;;;738.08;;
3591;SDS011;1810;48.720;9.094;2023-05-07T08:43:05;785.38;;;733.88;;
3591;SDS011;1810;48.720;9.094;2023-05-07T08:45:34;825.67;;;770.53;;
3591;SDS011;1810;48.720;9.094;2023-05-07T08:48:03;813.90;;;760.13;;
3591;SDS011;1810;48.720;9.094;2023-05-07T08:50:36;835.05;;;779.58;;
3591;SDS011;1810;48.720;9.094;2023-05-07T08:53:05;835.42;;;779.80;;
3591;SDS011;1810;48.720;9.094;2023-05-07T08:55:33;805.53;;;752.42;;
3591;SDS011;1810;48.720;9.094;2023-05-07T08:58:03;821.25;;;766.70;;
3591;SDS011;1810;48.720;9.094;2023-05-07T09:00:32;825.85;;;771.25;;
3591;SDS011;1810;48.720;9.094;2023-05-07T09:03:00;821.50;;;766.45;;
3591;SDS011;1810;48.720;9.094;2023-05-07T09:05:30;814.25;;;760.33;;
3591;SDS011;1810;48.720;9.094;2023-05-07T09:07:58;885.17;;;822.58;;
3591;SDS011;1810;48.720;9.094;2023-05-07T09:10:27;811.90;;;757.97;;
3591;SDS011;1810;48.720;9.094;2023-05-07T09:12:56;854.63;;;797.17;;
3591;SDS011;1810;48.720;9.094;2023-05-07T09:15:25;836.67;;;780.65;;
3591;SDS011;1810;48.720;9.094;2023-05-07T09:17:58;827.22;;;771.72;;
3591;SDS011;1810;48.720;9.094;2023-05-07T09:20:31;847.83;;;790.28;;
3591;SDS011;1810;48.720;9.094;2023-05-07T09:22:59;808.65;;;754.88;;
3591;SDS011;1810;48.720;9.094;2023-05-07T09:25:28;800.45;;;748.28;;
3591;SDS011;1810;48.720;9.094;2023-05-07T09:27:57;839.17;;;782.83;;
3591;SDS011;1810;48.720;9.094;2023-05-07T09:30:27;832.30;;;777.10;;
3591;SDS011;1810;48.720;9.094;2023-05-07T09:32:56;837.13;;;781.22;;
3591;SDS011;1810;48.720;9.094;2023-05-07T09:35:26;837.53;;;781.20;;
3591;SDS011;1810;48.720;9.094;2023-05-07T09:37:56;835.97;;;780.70;;
3591;SDS011;1810;48.720;9.094;2023-05-07T09:40:30;828.58;;;773.30;;
3591;SDS011;1810;48.720;9.094;2023-05-07T09:43:08;841.03;;;785.00;;
3591;SDS011;1810;48.720;9.094;2023-05-07T09:45:38;872.05;;;811.30;;
3591;SDS011;1810;48.720;9.094;2023-05-07T09:48:06;906.03;;;843.20;;
3591;SDS011;1810;48.720;9.094;2023-05-07T09:50:36;839.53;;;782.95;;
3591;SDS011;1810;48.720;9.094;2023-05-07T09:53:08;840.20;;;784.17;;
3591;SDS011;1810;48.720;9.094;2023-05-07T09:55:37;842.10;;;785.42;;
3591;SDS011;1810;48.720;9.094;2023-05-07T09:58:06;842.35;;;785.40;;
3591;SDS011;1810;48.720;9.094;2023-05-07T10:00:35;820.60;;;766.35;;
3591;SDS011;1810;48.720;9.094;2023-05-07T10:03:03;824.95;;;770.20;;
3591;SDS011;1810;48.720;9.094;2023-05-07T10:05:32;823.50;;;768.60;;
3591;SDS011;1810;48.720;9.094;2023-05-07T10:08:01;831.85;;;775.90;;
3591;SDS011;1810;48.720;9.094;2023-05-07T10:10:32;834.55;;;779.05;;
3591;SDS011;1810;48.720;9.094;2023-05-07T10:13:01;820.28;;;765.25;;
3591;SDS011;1810;48.720;9.094;2023-05-07T10:15:32;819.75;;;765.63;;
3591;SDS011;1810;48.720;9.094;2023-05-07T10:18:00;803.25;;;750.42;;
3591;SDS011;1810;48.720;9.094;2023-05-07T10:20:30;804.78;;;751.78;;
3591;SDS011;1810;48.720;9.094;2023-05-07T10:22:59;858.70;;;799.83;;
3591;SDS011;1810;48.720;9.094;2023-05-07T10:25:30;808.75;;;755.25;;
3591;SDS011;1810;48.720;9.094;2023-05-07T10:28:01;803.22;;;750.38;;
3591;SDS011;1810;48.720;9.094;2023-05-07T10:30:34;816.95;;;762.95;;
3591;SDS011;1810;48.720;9.094;2023-05-07T10:33:11;784.63;;;733.30;;
3591;SDS011;1810;48.720;9.094;2023-05-07T10:35:43;780.63;;;729.95;;
3591;SDS011;1810;48.720;9.094;2023-05-07T10:38:12;776.08;;;725.72;;
3591;SDS011;1810;48.720;9.094;2023-05-07T10:40:42;765.20;;;716.05;;
3591;SDS011;1810;48.720;9.094;2023-05-07T10:43:13;756.35;;;708.10;;
3591;SDS011;1810;48.720;9.094;2023-05-07T10:45:41;739.55;;;692.88;;
3591;SDS011;1810;48.720;9.094;2023-05-07T10:48:11;728.72;;;683.00;;
3591;SDS011;1810;48.720;9.094;2023-05-07T10:50:43;712.15;;;668.40;;
3591;SDS011;1810;48.720;9.094;2023-05-07T10:53:20;738.53;;;692.17;;
3591;SDS011;1810;48.720;9.094;2023-05-07T10:58:55;711.00;;;667.33;;
3591;SDS011;1810;48.720;9.094;2023-05-07T11:01:52;645.72;;;608.80;;
3591;SDS011;1810;48.720;9.094;2023-05-07T11:04:22;733.10;;;687.13;;
3591;SDS011;1810;48.720;9.094;2023-05-07T11:07:24;655.60;;;617.70;;
3591;SDS011;1810;48.720;9.094;2023-05-07T11:09:54;645.58;;;608.60;;
3591;SDS011;1810;48.720;9.094;2023-05-07T11:18:05;743.17;;;696.45;;
3591;SDS011;1810;48.720;9.094;2023-05-07T11:20:55;742.15;;;695.67;;
3591;SDS011;1810;48.720;9.094;2023-05-07T11:26:26;715.15;;;670.83;;
3591;SDS011;1810;48.720;9.094;2023-05-07T11:28:58;698.20;;;655.75;;
3591;SDS011;1810;48.720;9.094;2023-05-07T11:47:42;764.65;;;715.85;;
3591;SDS011;1810;48.720;9.094;2023-05-07T11:50:10;781.95;;;731.13;;
3591;SDS011;1810;48.720;9.094;2023-05-07T11:52:39;771.25;;;722.03;;
3591;SDS011;1810;48.720;9.094;2023-05-07T11:55:08;837.38;;;779.70;;
3591;SDS011;1810;48.720;9.094;2023-05-07T11:57:37;799.55;;;747.30;;
3591;SDS011;1810;48.720;9.094;2023-05-07T12:00:06;857.13;;;799.80;;
3591;SDS011;1810;48.720;9.094;2023-05-07T12:02:35;846.22;;;788.88;;
3591;SDS011;1810;48.720;9.094;2023-05-07T12:05:06;834.10;;;778.47;;
3591;SDS011;1810;48.720;9.094;2023-05-07T12:07:36;861.00;;;802.25;;
3591;SDS011;1810;48.720;9.094;2023-05-07T12:10:04;858.65;;;801.03;;
3591;SDS011;1810;48.720;9.094;2023-05-07T12:12:37;794.50;;;742.70;;
3591;SDS011;1810;48.720;9.094;2023-05-07T12:17:37;856.72;;;797.33;;
3591;SDS011;1810;48.720;9.094;2023-05-07T12:20:07;772.60;;;722.72;;
3591;SDS011;1810;48.720;9.094;2023-05-07T12:22:36;729.20;;;683.83;;
3591;SDS011;1810;48.720;9.094;2023-05-07T12:25:05;721.22;;;677.22;;
3591;SDS011;1810;48.720;9.094;2023-05-07T12:27:36;717.55;;;673.83;;
3591;SDS011;1810;48.720;9.094;2023-05-07T12:30:05;701.25;;;659.03;;
3591;SDS011;1810;48.720;9.094;2023-05-07T12:32:36;743.78;;;697.72;;
3591;SDS011;1810;48.720;9.094;2023-05-07T12:35:07;705.30;;;662.60;;
3591;SDS011;1810;48.720;9.094;2023-05-07T12:37:36;809.78;;;756.55;;
3591;SDS011;1810;48.720;9.094;2023-05-07T12:40:04;729.38;;;684.47;;
3591;SDS011;1810;48.720;9.094;2023-05-07T12:42:35;758.53;;;710.10;;
3591;SDS011;1810;48.720;9.094;2023-05-07T12:45:08;763.60;;;715.05;;
3591;SDS011;1810;48.720;9.094;2023-05-07T12:47:37;757.83;;;710.00;;
3591;SDS011;1810;48.720;9.094;2023-05-07T12:50:07;751.97;;;704.85;;
3591;SDS011;1810;48.720;9.094;2023-05-07T12:52:36;756.50;;;709.08;;
3591;SDS011;1810;48.720;9.094;2023-05-07T13:05:46;744.70;;;698.70;;
3591;SDS011;1810;48.720;9.094;2023-05-07T13:08:23;791.90;;;740.17;;
3591;SDS011;1810;48.720;9.094;2023-05-07T13:10:52;727.10;;;682.92;;
3591;SDS011;1810;48.720;9.094;2023-05-07T13:13:21;726.05;;;681.67;;
3591;SDS011;1810;48.720;9.094;2023-05-07T13:15:50;689.90;;;649.28;;
3591;SDS011;1810;48.720;9.094;2023-05-07T13:18:18;762.13;;;713.80;;
3591;SDS011;1810;48.720;9.094;2023-05-07T13:20:49;702.42;;;660.33;;
3591;SDS011;1810;48.720;9.094;2023-05-07T13:23:17;743.70;;;696.72;;
3591;SDS011;1810;48.720;9.094;2023-05-07T13:25:46;874.97;;;815.63;;
3591;SDS011;1810;48.720;9.094;2023-05-07T13:28:15;730.63;;;685.42;;
3591;SDS011;1810;48.720;9.094;2023-05-07T13:30:43;698.00;;;656.53;;
3591;SDS011;1810;48.720;9.094;2023-05-07T13:33:12;634.78;;;599.40;;
3591;SDS011;1810;48.720;9.094;2023-05-07T13:35:41;615.00;;;581.33;;
3591;SDS011;1810;48.720;9.094;2023-05-07T13:38:11;527.30;;;500.67;;
3591;SDS011;1810;48.720;9.094;2023-05-07T13:40:42;564.47;;;534.17;;
3591;SDS011;1810;48.720;9.094;2023-05-07T13:43:11;393.63;;;375.27;;
3591;SDS011;1810;48.720;9.094;2023-05-07T13:45:39;310.05;;;295.58;;
3591;SDS011;1810;48.720;9.094;2023-05-07T13:48:08;295.25;;;281.85;;
3591;SDS011;1810;48.720;9.094;2023-05-07T13:50:37;346.55;;;330.85;;
3591;SDS011;1810;48.720;9.094;2023-05-07T13:53:05;388.33;;;370.30;;
3591;SDS011;1810;48.720;9.094;2023-05-07T13:55:36;417.02;;;397.38;;
3591;SDS011;1810;48.720;9.094;2023-05-07T13:58:04;408.38;;;389.48;;
3591;SDS011;1810;48.720;9.094;2023-05-07T14:00:33;470.42;;;447.58;;
3591;SDS011;1810;48.720;9.094;2023-05-07T14:03:02;560.97;;;531.20;;
3591;SDS011;1810;48.720;9.094;2023-05-07T14:05:34;514.53;;;488.48;;
3591;SDS011;1810;48.720;9.094;2023-05-07T14:08:14;490.27;;;466.13;;
3591;SDS011;1810;48.720;9.094;2023-05-07T14:10:59;636.08;;;600.67;;
3591;SDS011;1810;48.720;9.094;2023-05-07T14:13:32;606.10;;;573.95;;
3591;SDS011;1810;48.720;9.094;2023-05-07T14:16:01;620.30;;;585.95;;
3591;SDS011;1810;48.720;9.094;2023-05-07T14:18:31;621.10;;;587.08;;
3591;SDS011;1810;48.720;9.094;2023-05-07T14:21:00;627.92;;;593.22;;
3591;SDS011;1810;48.720;9.094;2023-05-07T14:23:29;740.08;;;694.60;;
3591;SDS011;1810;48.720;9.094;2023-05-07T14:25:59;660.10;;;622.40;;
3591;SDS011;1810;48.720;9.094;2023-05-07T14:28:37;634.45;;;599.40;;
3591;SDS011;1810;48.720;9.094;2023-05-07T14:31:08;685.22;;;644.63;;
3591;SDS011;1810;48.720;9.094;2023-05-07T14:33:40;642.70;;;606.92;;
3591;SDS011;1810;48.720;9.094;2023-05-07T14:36:09;621.53;;;586.60;;
3591;SDS011;1810;48.720;9.094;2023-05-07T14:38:37;723.80;;;679.55;;
3591;SDS011;1810;48.720;9.094;2023-05-07T14:41:08;681.13;;;640.92;;
3591;SDS011;1810;48.720;9.094;2023-05-07T14:43:36;756.33;;;708.92;;
3591;SDS011;1810;48.720;9.094;2023-05-07T14:46:05;677.28;;;638.08;;
3591;SDS011;1810;48.720;9.094;2023-05-07T14:48:34;666.13;;;627.80;;
3591;SDS011;1810;48.720;9.094;2023-05-07T14:51:05;687.38;;;647.10;;
3591;SDS011;1810;48.720;9.094;2023-05-07T14:53:34;668.80;;;629.85;;
3591;SDS011;1810;48.720;9.094;2023-05-07T14:56:03;708.15;;;665.28;;
3591;SDS011;1810;48.720;9.094;2023-05-07T14:58:33;708.97;;;666.40;;
3591;SDS011;1810;48.720;9.094;2023-05-07T15:01:02;700.17;;;658.53;;
3591;SDS011;1810;48.720;9.094;2023-05-07T15:03:31;685.63;;;645.65;;
3591;SDS011;1810;48.720;9.094;2023-05-07T15:06:01;731.35;;;686.42;;
3591;SDS011;1810;48.720;9.094;2023-05-07T15:08:29;730.15;;;685.70;;
3591;SDS011;1810;48.720;9.094;2023-05-07T15:10:58;733.17;;;688.05;;
3591;SDS011;1810;48.720;9.094;2023-05-07T15:13:26;745.88;;;699.38;;
3591;SDS011;1810;48.720;9.094;2023-05-07T15:16:00;750.28;;;703.40;;
3591;SDS011;1810;48.720;9.094;2023-05-07T15:18:32;819.42;;;765.22;;
3591;SDS011;1810;48.720;9.094;2023-05-07T15:23:32;723.30;;;679.53;;
3591;SDS011;1810;48.720;9.094;2023-05-07T15:26:01;728.03;;;683.40;;
3591;SDS011;1810;48.720;9.094;2023-05-07T15:28:44;750.83;;;704.65;;
3591;SDS011;1810;48.720;9.094;2023-05-07T15:31:26;743.55;;;696.88;;
3591;SDS011;1810;48.720;9.094;2023-05-07T15:34:14;701.35;;;659.72;;
3591;SDS011;1810;48.720;9.094;2023-05-07T15:38:10;716.42;;;673.00;;
3591;SDS011;1810;48.720;9.094;2023-05-07T16:13:36;752.58;;;705.30;;
3591;SDS011;1810;48.720;9.094;2023-05-07T16:16:05;706.70;;;664.28;;
3591;SDS011;1810;48.720;9.094;2023-05-07T16:18:33;694.40;;;652.85;;
3591;SDS011;1810;48.720;9.094;2023-05-07T16:21:05;771.53;;;721.65;;